sensor_id;sensor_type;location;lat;lon;timestamp;temperature;humidity
18597;DHT22;9428;50.950;6.912;2024-03-07T00:01:58;8.10;99.90
18597;DHT22;9428;50.950;6.912;2024-03-07T00:04:45;8.10;99.90
18597;DHT22;9428;50.950;6.912;2024-03-07T00:07:32;8.20;99.90
18597;DHT22;9428;50.950;6.912;2024-03-07T00:10:20;8.20;99.90
18597;DHT22;9428;50.950;6.912;2024-03-07T00:13:09;7.70;99.90
18597;DHT22;9428;50.950;6.912;2024-03-07T00:15:57;7.70;99.90
18597;DHT22;9428;50.950;6.912;2024-03-07T00:18:44;7.80;99.90
18597;DHT22;9428;50.950;6.912;2024-03-07T00:21:32;7.70;99.90
18597;DHT22;9428;50.950;6.912;2024-03-07T00:24:19;8.60;99.90
18597;DHT22;9428;50.950;6.912;2024-03-07T00:27:06;7.80;99.90
18597;DHT22;9428;50.950;6.912;2024-03-07T00:29:53;7.90;99.90
18597;DHT22;9428;50.950;6.912;2024-03-07T00:32:42;7.90;99.90
18597;DHT22;9428;50.950;6.912;2024-03-07T00:35:29;7.80;99.90
18597;DHT22;9428;50.950;6.912;2024-03-07T00:38:16;7.80;99.90
18597;DHT22;9428;50.950;6.912;2024-03-07T00:41:03;7.60;99.90
18597;DHT22;9428;50.950;6.912;2024-03-07T00:43:50;7.80;99.90
18597;DHT22;9428;50.950;6.912;2024-03-07T00:46:38;7.80;99.90
18597;DHT22;9428;50.950;6.912;2024-03-07T00:49:26;7.70;99.90
18597;DHT22;9428;50.950;6.912;2024-03-07T00:52:14;7.70;99.90
18597;DHT22;9428;50.950;6.912;2024-03-07T00:55:02;7.70;99.90
18597;DHT22;9428;50.950;6.912;2024-03-07T00:57:49;7.60;99.90
18597;DHT22;9428;50.950;6.912;2024-03-07T01:00:37;7.50;99.90
18597;DHT22;9428;50.950;6.912;2024-03-07T01:03:24;7.50;99.90
18597;DHT22;9428;50.950;6.912;2024-03-07T01:06:12;8.20;99.90
18597;DHT22;9428;50.950;6.912;2024-03-07T01:09:00;7.50;99.90
18597;DHT22;9428;50.950;6.912;2024-03-07T01:11:47;7.40;99.90
18597;DHT22;9428;50.950;6.912;2024-03-07T01:14:35;7.30;99.90
18597;DHT22;9428;50.950;6.912;2024-03-07T01:17:22;7.40;99.90
18597;DHT22;9428;50.950;6.912;2024-03-07T01:20:10;7.50;99.90
18597;DHT22;9428;50.950;6.912;2024-03-07T01:22:59;7.30;99.90
18597;DHT22;9428;50.950;6.912;2024-03-07T01:25:46;7.20;99.90
18597;DHT22;9428;50.950;6.912;2024-03-07T01:28:33;7.60;99.90
18597;DHT22;9428;50.950;6.912;2024-03-07T01:31:20;7.30;99.90
18597;DHT22;9428;50.950;6.912;2024-03-07T01:34:08;7.20;99.90
18597;DHT22;9428;50.950;6.912;2024-03-07T01:36:55;7.70;99.90
18597;DHT22;9428;50.950;6.912;2024-03-07T01:39:43;7.10;99.90
18597;DHT22;9428;50.950;6.912;2024-03-07T01:42:31;7.20;99.90
18597;DHT22;9428;50.950;6.912;2024-03-07T01:45:18;7.20;99.90
18597;DHT22;9428;50.950;6.912;2024-03-07T01:48:08;7.30;99.90
18597;DHT22;9428;50.950;6.912;2024-03-07T01:50:56;7.10;99.90
18597;DHT22;9428;50.950;6.912;2024-03-07T01:53:44;7.20;99.90
18597;DHT22;9428;50.950;6.912;2024-03-07T01:56:33;7.20;99.90
18597;DHT22;9428;50.950;6.912;2024-03-07T01:59:20;7.10;99.90
18597;DHT22;9428;50.950;6.912;2024-03-07T02:02:07;7.20;99.90
18597;DHT22;9428;50.950;6.912;2024-03-07T02:04:55;7.30;99.90
18597;DHT22;9428;50.950;6.912;2024-03-07T02:07:43;7.10;99.90
18597;DHT22;9428;50.950;6.912;2024-03-07T02:10:30;7.20;99.90
18597;DHT22;9428;50.950;6.912;2024-03-07T02:13:19;7.10;99.90
18597;DHT22;9428;50.950;6.912;2024-03-07T02:16:06;7.00;99.90
18597;DHT22;9428;50.950;6.912;2024-03-07T02:18:54;7.20;99.90
18597;DHT22;9428;50.950;6.912;2024-03-07T02:21:43;6.90;99.90
18597;DHT22;9428;50.950;6.912;2024-03-07T02:24:30;6.80;99.90
18597;DHT22;9428;50.950;6.912;2024-03-07T02:27:18;6.90;99.90
18597;DHT22;9428;50.950;6.912;2024-03-07T02:30:06;7.10;99.90
18597;DHT22;9428;50.950;6.912;2024-03-07T02:32:54;6.80;99.90
18597;DHT22;9428;50.950;6.912;2024-03-07T02:35:42;7.00;99.90
18597;DHT22;9428;50.950;6.912;2024-03-07T02:38:31;6.80;99.90
18597;DHT22;9428;50.950;6.912;2024-03-07T02:41:18;7.00;99.90
18597;DHT22;9428;50.950;6.912;2024-03-07T02:44:05;7.10;99.90
18597;DHT22;9428;50.950;6.912;2024-03-07T02:46:52;7.10;99.90
18597;DHT22;9428;50.950;6.912;2024-03-07T02:49:40;7.20;99.90
18597;DHT22;9428;50.950;6.912;2024-03-07T02:52:27;7.10;99.90
18597;DHT22;9428;50.950;6.912;2024-03-07T02:55:16;6.90;99.90
18597;DHT22;9428;50.950;6.912;2024-03-07T02:58:04;7.00;99.90
18597;DHT22;9428;50.950;6.912;2024-03-07T03:00:57;7.20;99.90
18597;DHT22;9428;50.950;6.912;2024-03-07T03:03:45;6.70;99.90
18597;DHT22;9428;50.950;6.912;2024-03-07T03:06:32;7.00;99.90
18597;DHT22;9428;50.950;6.912;2024-03-07T03:09:20;7.00;99.90
18597;DHT22;9428;50.950;6.912;2024-03-07T03:12:09;7.00;99.90
18597;DHT22;9428;50.950;6.912;2024-03-07T03:14:56;7.30;99.90
18597;DHT22;9428;50.950;6.912;2024-03-07T03:17:43;6.90;99.90
18597;DHT22;9428;50.950;6.912;2024-03-07T03:20:30;7.00;99.90
18597;DHT22;9428;50.950;6.912;2024-03-07T03:23:24;7.00;99.90
18597;DHT22;9428;50.950;6.912;2024-03-07T03:26:11;7.10;99.90
18597;DHT22;9428;50.950;6.912;2024-03-07T03:29:01;7.10;99.90
18597;DHT22;9428;50.950;6.912;2024-03-07T03:31:48;7.00;99.90
18597;DHT22;9428;50.950;6.912;2024-03-07T03:34:35;7.00;99.90
18597;DHT22;9428;50.950;6.912;2024-03-07T03:37:22;7.00;99.90
18597;DHT22;9428;50.950;6.912;2024-03-07T03:40:11;6.90;99.90
18597;DHT22;9428;50.950;6.912;2024-03-07T03:42:58;6.90;99.90
18597;DHT22;9428;50.950;6.912;2024-03-07T03:45:47;7.00;99.90
18597;DHT22;9428;50.950;6.912;2024-03-07T03:48:35;7.60;99.90
18597;DHT22;9428;50.950;6.912;2024-03-07T03:51:23;7.00;99.90
18597;DHT22;9428;50.950;6.912;2024-03-07T03:54:11;7.00;99.90
18597;DHT22;9428;50.950;6.912;2024-03-07T03:56:58;7.10;99.90
18597;DHT22;9428;50.950;6.912;2024-03-07T03:59:45;7.00;99.90
18597;DHT22;9428;50.950;6.912;2024-03-07T04:02:34;7.00;99.90
18597;DHT22;9428;50.950;6.912;2024-03-07T04:05:22;7.00;99.90
18597;DHT22;9428;50.950;6.912;2024-03-07T04:08:10;6.90;99.90
18597;DHT22;9428;50.950;6.912;2024-03-07T04:10:57;7.00;99.90
18597;DHT22;9428;50.950;6.912;2024-03-07T04:13:45;7.00;99.90
18597;DHT22;9428;50.950;6.912;2024-03-07T04:16:32;6.80;99.90
18597;DHT22;9428;50.950;6.912;2024-03-07T04:19:21;6.80;99.90
18597;DHT22;9428;50.950;6.912;2024-03-07T04:22:08;6.90;99.90
18597;DHT22;9428;50.950;6.912;2024-03-07T04:24:55;7.00;99.90
18597;DHT22;9428;50.950;6.912;2024-03-07T04:27:43;7.30;99.90
18597;DHT22;9428;50.950;6.912;2024-03-07T04:30:30;6.90;99.90
18597;DHT22;9428;50.950;6.912;2024-03-07T04:33:17;6.70;99.90
18597;DHT22;9428;50.950;6.912;2024-03-07T04:36:07;6.90;99.90
18597;DHT22;9428;50.950;6.912;2024-03-07T04:38:54;7.00;99.90
18597;DHT22;9428;50.950;6.912;2024-03-07T04:41:41;6.90;99.90
18597;DHT22;9428;50.950;6.912;2024-03-07T04:44:29;6.80;99.90
18597;DHT22;9428;50.950;6.912;2024-03-07T04:47:16;6.90;99.90
18597;DHT22;9428;50.950;6.912;2024-03-07T04:50:04;6.80;99.90
18597;DHT22;9428;50.950;6.912;2024-03-07T04:52:53;6.80;99.90
18597;DHT22;9428;50.950;6.912;2024-03-07T04:55:41;7.50;99.90
18597;DHT22;9428;50.950;6.912;2024-03-07T04:58:28;6.50;99.90
18597;DHT22;9428;50.950;6.912;2024-03-07T05:01:15;6.70;99.90
18597;DHT22;9428;50.950;6.912;2024-03-07T05:04:02;6.60;99.90
18597;DHT22;9428;50.950;6.912;2024-03-07T05:06:51;6.30;99.90
18597;DHT22;9428;50.950;6.912;2024-03-07T05:09:39;6.70;99.90
18597;DHT22;9428;50.950;6.912;2024-03-07T05:12:26;6.60;99.90
18597;DHT22;9428;50.950;6.912;2024-03-07T05:15:14;6.70;99.90
18597;DHT22;9428;50.950;6.912;2024-03-07T05:18:01;6.70;99.90
18597;DHT22;9428;50.950;6.912;2024-03-07T05:20:48;6.80;99.90
18597;DHT22;9428;50.950;6.912;2024-03-07T05:23:36;6.70;99.90
18597;DHT22;9428;50.950;6.912;2024-03-07T05:26:24;6.80;99.90
18597;DHT22;9428;50.950;6.912;2024-03-07T05:29:12;7.20;99.90
18597;DHT22;9428;50.950;6.912;2024-03-07T05:32:20;6.70;99.90
18597;DHT22;9428;50.950;6.912;2024-03-07T05:35:08;6.50;99.90
18597;DHT22;9428;50.950;6.912;2024-03-07T05:37:57;6.40;99.90
18597;DHT22;9428;50.950;6.912;2024-03-07T05:40:45;6.60;99.90
18597;DHT22;9428;50.950;6.912;2024-03-07T05:43:35;6.60;99.90
18597;DHT22;9428;50.950;6.912;2024-03-07T05:46:23;6.70;99.90
18597;DHT22;9428;50.950;6.912;2024-03-07T05:49:10;6.80;99.90
18597;DHT22;9428;50.950;6.912;2024-03-07T05:51:57;6.60;99.90
18597;DHT22;9428;50.950;6.912;2024-03-07T05:54:44;7.50;99.90
18597;DHT22;9428;50.950;6.912;2024-03-07T05:57:31;6.70;99.90
18597;DHT22;9428;50.950;6.912;2024-03-07T06:00:20;6.30;99.90
18597;DHT22;9428;50.950;6.912;2024-03-07T06:03:12;6.40;99.90
18597;DHT22;9428;50.950;6.912;2024-03-07T06:06:02;6.40;99.90
18597;DHT22;9428;50.950;6.912;2024-03-07T06:08:50;6.30;99.90
18597;DHT22;9428;50.950;6.912;2024-03-07T06:11:38;6.40;99.90
18597;DHT22;9428;50.950;6.912;2024-03-07T06:14:27;6.50;99.90
18597;DHT22;9428;50.950;6.912;2024-03-07T06:17:17;6.50;99.90
18597;DHT22;9428;50.950;6.912;2024-03-07T06:20:08;6.50;99.90
18597;DHT22;9428;50.950;6.912;2024-03-07T06:23:08;6.60;99.90
18597;DHT22;9428;50.950;6.912;2024-03-07T06:25:57;6.50;99.90
18597;DHT22;9428;50.950;6.912;2024-03-07T06:28:45;6.40;99.90
18597;DHT22;9428;50.950;6.912;2024-03-07T06:31:33;6.70;99.90
18597;DHT22;9428;50.950;6.912;2024-03-07T06:34:22;6.60;99.90
18597;DHT22;9428;50.950;6.912;2024-03-07T06:37:09;6.80;99.90
18597;DHT22;9428;50.950;6.912;2024-03-07T06:39:56;6.80;99.90
18597;DHT22;9428;50.950;6.912;2024-03-07T06:42:43;7.00;99.90
18597;DHT22;9428;50.950;6.912;2024-03-07T06:45:30;6.80;99.90
18597;DHT22;9428;50.950;6.912;2024-03-07T06:48:17;6.90;99.90
18597;DHT22;9428;50.950;6.912;2024-03-07T06:51:06;6.80;99.90
18597;DHT22;9428;50.950;6.912;2024-03-07T06:53:54;6.80;99.90
18597;DHT22;9428;50.950;6.912;2024-03-07T06:56:41;6.90;99.90
18597;DHT22;9428;50.950;6.912;2024-03-07T06:59:29;6.90;99.90
18597;DHT22;9428;50.950;6.912;2024-03-07T07:02:17;6.70;99.90
18597;DHT22;9428;50.950;6.912;2024-03-07T07:05:06;6.70;99.90
18597;DHT22;9428;50.950;6.912;2024-03-07T07:07:58;6.90;99.90
18597;DHT22;9428;50.950;6.912;2024-03-07T07:10:45;6.70;99.90
18597;DHT22;9428;50.950;6.912;2024-03-07T07:13:33;6.70;99.90
18597;DHT22;9428;50.950;6.912;2024-03-07T07:16:20;6.70;99.90
18597;DHT22;9428;50.950;6.912;2024-03-07T07:19:07;6.70;99.90
18597;DHT22;9428;50.950;6.912;2024-03-07T07:21:55;6.70;99.90
18597;DHT22;9428;50.950;6.912;2024-03-07T07:24:44;6.80;99.90
18597;DHT22;9428;50.950;6.912;2024-03-07T07:27:31;6.80;99.90
18597;DHT22;9428;50.950;6.912;2024-03-07T07:30:20;6.80;99.90
18597;DHT22;9428;50.950;6.912;2024-03-07T07:33:08;6.70;99.90
18597;DHT22;9428;50.950;6.912;2024-03-07T07:35:55;6.90;99.90
18597;DHT22;9428;50.950;6.912;2024-03-07T07:38:42;6.70;99.90
18597;DHT22;9428;50.950;6.912;2024-03-07T07:41:31;6.80;99.90
18597;DHT22;9428;50.950;6.912;2024-03-07T07:44:18;6.80;99.90
18597;DHT22;9428;50.950;6.912;2024-03-07T07:47:05;6.80;99.90
18597;DHT22;9428;50.950;6.912;2024-03-07T07:50:01;6.80;99.90
18597;DHT22;9428;50.950;6.912;2024-03-07T07:52:53;6.80;99.90
18597;DHT22;9428;50.950;6.912;2024-03-07T07:55:41;7.70;99.90
18597;DHT22;9428;50.950;6.912;2024-03-07T07:58:30;6.90;99.90
18597;DHT22;9428;50.950;6.912;2024-03-07T08:01:17;7.00;99.90
18597;DHT22;9428;50.950;6.912;2024-03-07T08:04:04;6.90;99.90
18597;DHT22;9428;50.950;6.912;2024-03-07T08:06:52;6.90;99.90
18597;DHT22;9428;50.950;6.912;2024-03-07T08:09:39;6.90;99.90
18597;DHT22;9428;50.950;6.912;2024-03-07T08:12:27;7.00;99.90
18597;DHT22;9428;50.950;6.912;2024-03-07T08:15:16;7.10;99.90
18597;DHT22;9428;50.950;6.912;2024-03-07T08:18:03;7.10;99.90
18597;DHT22;9428;50.950;6.912;2024-03-07T08:20:54;7.20;99.90
18597;DHT22;9428;50.950;6.912;2024-03-07T08:23:42;7.20;99.90
18597;DHT22;9428;50.950;6.912;2024-03-07T08:26:29;7.20;99.90
18597;DHT22;9428;50.950;6.912;2024-03-07T08:29:18;7.30;99.90
18597;DHT22;9428;50.950;6.912;2024-03-07T08:32:07;7.30;99.90
18597;DHT22;9428;50.950;6.912;2024-03-07T08:34:54;7.30;99.90
18597;DHT22;9428;50.950;6.912;2024-03-07T08:37:43;7.50;99.90
18597;DHT22;9428;50.950;6.912;2024-03-07T08:40:31;7.50;99.90
18597;DHT22;9428;50.950;6.912;2024-03-07T08:43:18;7.50;99.90
18597;DHT22;9428;50.950;6.912;2024-03-07T08:46:05;7.60;99.90
18597;DHT22;9428;50.950;6.912;2024-03-07T08:48:55;7.70;99.90
18597;DHT22;9428;50.950;6.912;2024-03-07T08:51:42;7.60;99.90
18597;DHT22;9428;50.950;6.912;2024-03-07T08:54:29;7.70;99.90
18597;DHT22;9428;50.950;6.912;2024-03-07T08:57:17;7.70;99.90
18597;DHT22;9428;50.950;6.912;2024-03-07T09:00:06;7.90;99.90
18597;DHT22;9428;50.950;6.912;2024-03-07T09:02:57;7.70;99.90
18597;DHT22;9428;50.950;6.912;2024-03-07T09:05:47;7.80;99.90
18597;DHT22;9428;50.950;6.912;2024-03-07T09:08:36;7.80;99.90
18597;DHT22;9428;50.950;6.912;2024-03-07T09:11:23;7.90;99.90
18597;DHT22;9428;50.950;6.912;2024-03-07T09:14:11;7.90;99.90
18597;DHT22;9428;50.950;6.912;2024-03-07T09:16:58;8.00;99.90
18597;DHT22;9428;50.950;6.912;2024-03-07T09:19:45;8.10;99.90
18597;DHT22;9428;50.950;6.912;2024-03-07T09:22:34;8.20;99.90
18597;DHT22;9428;50.950;6.912;2024-03-07T09:25:21;8.00;99.90
18597;DHT22;9428;50.950;6.912;2024-03-07T09:28:10;7.90;99.90
18597;DHT22;9428;50.950;6.912;2024-03-07T09:30:57;8.10;99.90
18597;DHT22;9428;50.950;6.912;2024-03-07T09:33:44;8.10;99.90
18597;DHT22;9428;50.950;6.912;2024-03-07T09:36:31;8.10;99.90
18597;DHT22;9428;50.950;6.912;2024-03-07T09:39:21;8.40;99.90
18597;DHT22;9428;50.950;6.912;2024-03-07T09:42:08;8.20;99.90
18597;DHT22;9428;50.950;6.912;2024-03-07T09:44:56;8.40;99.90
18597;DHT22;9428;50.950;6.912;2024-03-07T09:47:46;8.40;99.90
18597;DHT22;9428;50.950;6.912;2024-03-07T09:50:34;8.80;99.90
18597;DHT22;9428;50.950;6.912;2024-03-07T09:53:22;8.50;99.90
18597;DHT22;9428;50.950;6.912;2024-03-07T09:56:14;8.50;99.90
18597;DHT22;9428;50.950;6.912;2024-03-07T09:59:04;8.70;99.90
18597;DHT22;9428;50.950;6.912;2024-03-07T10:01:54;8.60;99.90
18597;DHT22;9428;50.950;6.912;2024-03-07T10:04:43;8.70;99.90
18597;DHT22;9428;50.950;6.912;2024-03-07T10:07:31;8.70;99.90
18597;DHT22;9428;50.950;6.912;2024-03-07T10:10:20;9.00;99.90
18597;DHT22;9428;50.950;6.912;2024-03-07T10:13:09;8.80;99.90
18597;DHT22;9428;50.950;6.912;2024-03-07T10:15:57;8.70;99.90
18597;DHT22;9428;50.950;6.912;2024-03-07T10:18:46;8.80;99.90
18597;DHT22;9428;50.950;6.912;2024-03-07T10:21:33;8.80;99.90
18597;DHT22;9428;50.950;6.912;2024-03-07T10:24:24;8.80;99.90
18597;DHT22;9428;50.950;6.912;2024-03-07T10:27:11;8.90;99.90
18597;DHT22;9428;50.950;6.912;2024-03-07T10:30:01;8.80;99.90
18597;DHT22;9428;50.950;6.912;2024-03-07T10:32:52;8.80;99.90
18597;DHT22;9428;50.950;6.912;2024-03-07T10:35:40;8.60;99.90
18597;DHT22;9428;50.950;6.912;2024-03-07T10:38:28;8.70;99.90
18597;DHT22;9428;50.950;6.912;2024-03-07T10:41:16;8.80;99.90
18597;DHT22;9428;50.950;6.912;2024-03-07T10:44:04;8.70;99.90
18597;DHT22;9428;50.950;6.912;2024-03-07T10:46:56;8.60;99.90
18597;DHT22;9428;50.950;6.912;2024-03-07T10:49:55;8.80;99.90
18597;DHT22;9428;50.950;6.912;2024-03-07T10:52:52;8.90;99.90
18597;DHT22;9428;50.950;6.912;2024-03-07T10:55:49;8.90;99.90
18597;DHT22;9428;50.950;6.912;2024-03-07T10:58:45;8.90;99.90
18597;DHT22;9428;50.950;6.912;2024-03-07T11:01:38;8.90;99.90
18597;DHT22;9428;50.950;6.912;2024-03-07T11:04:28;9.10;99.90
18597;DHT22;9428;50.950;6.912;2024-03-07T11:07:15;9.20;99.90
18597;DHT22;9428;50.950;6.912;2024-03-07T11:10:05;9.40;99.90
18597;DHT22;9428;50.950;6.912;2024-03-07T11:12:58;9.50;99.90
18597;DHT22;9428;50.950;6.912;2024-03-07T11:15:48;9.60;99.90
18597;DHT22;9428;50.950;6.912;2024-03-07T11:18:37;9.60;99.90
18597;DHT22;9428;50.950;6.912;2024-03-07T11:21:46;9.70;99.90
18597;DHT22;9428;50.950;6.912;2024-03-07T11:24:34;9.80;99.90
18597;DHT22;9428;50.950;6.912;2024-03-07T11:27:22;9.80;99.90
18597;DHT22;9428;50.950;6.912;2024-03-07T11:30:10;10.70;99.90
18597;DHT22;9428;50.950;6.912;2024-03-07T11:33:02;9.70;99.90
18597;DHT22;9428;50.950;6.912;2024-03-07T11:35:49;9.70;99.90
18597;DHT22;9428;50.950;6.912;2024-03-07T11:38:38;9.80;99.90
18597;DHT22;9428;50.950;6.912;2024-03-07T11:41:25;9.80;99.90
18597;DHT22;9428;50.950;6.912;2024-03-07T11:44:13;9.90;99.90
18597;DHT22;9428;50.950;6.912;2024-03-07T11:47:00;9.90;99.90
18597;DHT22;9428;50.950;6.912;2024-03-07T11:49:54;10.50;99.90
18597;DHT22;9428;50.950;6.912;2024-03-07T11:52:43;9.90;99.90
18597;DHT22;9428;50.950;6.912;2024-03-07T11:55:33;10.30;99.90
18597;DHT22;9428;50.950;6.912;2024-03-07T11:58:27;10.00;99.90
18597;DHT22;9428;50.950;6.912;2024-03-07T12:01:18;9.90;99.90
18597;DHT22;9428;50.950;6.912;2024-03-07T12:04:05;10.30;99.90
18597;DHT22;9428;50.950;6.912;2024-03-07T12:06:53;9.90;99.90
18597;DHT22;9428;50.950;6.912;2024-03-07T12:09:44;10.00;99.90
18597;DHT22;9428;50.950;6.912;2024-03-07T12:12:37;10.00;99.90
18597;DHT22;9428;50.950;6.912;2024-03-07T12:15:25;10.60;99.90
18597;DHT22;9428;50.950;6.912;2024-03-07T12:18:12;10.30;99.90
18597;DHT22;9428;50.950;6.912;2024-03-07T12:21:03;10.20;99.90
18597;DHT22;9428;50.950;6.912;2024-03-07T12:23:54;10.20;99.90
18597;DHT22;9428;50.950;6.912;2024-03-07T12:26:41;10.10;99.90
18597;DHT22;9428;50.950;6.912;2024-03-07T12:29:30;10.00;99.90
18597;DHT22;9428;50.950;6.912;2024-03-07T12:32:18;10.20;99.90
18597;DHT22;9428;50.950;6.912;2024-03-07T12:35:07;9.90;99.90
18597;DHT22;9428;50.950;6.912;2024-03-07T12:37:58;10.00;99.90
18597;DHT22;9428;50.950;6.912;2024-03-07T12:40:46;9.90;99.90
18597;DHT22;9428;50.950;6.912;2024-03-07T12:43:33;10.00;99.90
18597;DHT22;9428;50.950;6.912;2024-03-07T12:46:22;9.90;99.90
18597;DHT22;9428;50.950;6.912;2024-03-07T12:49:09;10.10;99.90
18597;DHT22;9428;50.950;6.912;2024-03-07T12:51:57;10.20;99.90
18597;DHT22;9428;50.950;6.912;2024-03-07T12:54:45;10.10;99.90
18597;DHT22;9428;50.950;6.912;2024-03-07T12:57:34;10.30;99.90
18597;DHT22;9428;50.950;6.912;2024-03-07T13:00:24;10.40;99.90
18597;DHT22;9428;50.950;6.912;2024-03-07T13:03:12;10.90;99.90
18597;DHT22;9428;50.950;6.912;2024-03-07T13:06:00;10.30;99.90
18597;DHT22;9428;50.950;6.912;2024-03-07T13:08:47;10.20;99.90
18597;DHT22;9428;50.950;6.912;2024-03-07T13:11:34;10.20;99.90
18597;DHT22;9428;50.950;6.912;2024-03-07T13:14:26;10.20;99.90
18597;DHT22;9428;50.950;6.912;2024-03-07T13:17:18;10.30;99.90
18597;DHT22;9428;50.950;6.912;2024-03-07T13:20:09;10.30;99.90
18597;DHT22;9428;50.950;6.912;2024-03-07T13:22:58;10.30;99.90
18597;DHT22;9428;50.950;6.912;2024-03-07T13:25:46;10.50;99.90
18597;DHT22;9428;50.950;6.912;2024-03-07T13:28:34;10.50;99.90
18597;DHT22;9428;50.950;6.912;2024-03-07T13:31:21;10.40;99.90
18597;DHT22;9428;50.950;6.912;2024-03-07T13:34:12;10.30;99.90
18597;DHT22;9428;50.950;6.912;2024-03-07T13:37:01;10.20;99.90
18597;DHT22;9428;50.950;6.912;2024-03-07T13:39:50;10.20;99.90
18597;DHT22;9428;50.950;6.912;2024-03-07T13:42:37;10.50;99.90
18597;DHT22;9428;50.950;6.912;2024-03-07T13:45:26;10.40;99.90
18597;DHT22;9428;50.950;6.912;2024-03-07T13:48:14;10.40;99.90
18597;DHT22;9428;50.950;6.912;2024-03-07T13:51:03;10.60;99.90
18597;DHT22;9428;50.950;6.912;2024-03-07T13:53:55;10.70;99.90
18597;DHT22;9428;50.950;6.912;2024-03-07T13:57:05;10.60;99.90
18597;DHT22;9428;50.950;6.912;2024-03-07T14:00:16;10.60;99.90
18597;DHT22;9428;50.950;6.912;2024-03-07T14:03:26;10.60;99.90
18597;DHT22;9428;50.950;6.912;2024-03-07T14:06:25;10.60;99.90
18597;DHT22;9428;50.950;6.912;2024-03-07T14:09:43;10.70;99.90
18597;DHT22;9428;50.950;6.912;2024-03-07T14:12:48;10.40;99.90
18597;DHT22;9428;50.950;6.912;2024-03-07T14:16:34;10.30;99.90
18597;DHT22;9428;50.950;6.912;2024-03-07T14:20:05;10.50;99.90
18597;DHT22;9428;50.950;6.912;2024-03-07T14:23:14;11.00;99.90
18597;DHT22;9428;50.950;6.912;2024-03-07T14:26:38;10.50;99.90
18597;DHT22;9428;50.950;6.912;2024-03-07T14:29:40;10.40;99.90
18597;DHT22;9428;50.950;6.912;2024-03-07T14:32:29;10.40;99.90
18597;DHT22;9428;50.950;6.912;2024-03-07T14:35:23;10.50;99.90
18597;DHT22;9428;50.950;6.912;2024-03-07T14:38:23;10.60;99.90
18597;DHT22;9428;50.950;6.912;2024-03-07T14:41:13;10.30;99.90
18597;DHT22;9428;50.950;6.912;2024-03-07T14:44:02;10.50;99.90
18597;DHT22;9428;50.950;6.912;2024-03-07T14:46:57;10.30;99.90
18597;DHT22;9428;50.950;6.912;2024-03-07T14:49:45;10.20;99.90
18597;DHT22;9428;50.950;6.912;2024-03-07T14:52:32;10.50;99.90
18597;DHT22;9428;50.950;6.912;2024-03-07T14:55:20;10.30;99.90
18597;DHT22;9428;50.950;6.912;2024-03-07T14:58:08;10.50;99.90
18597;DHT22;9428;50.950;6.912;2024-03-07T15:00:56;10.30;99.90
18597;DHT22;9428;50.950;6.912;2024-03-07T15:03:44;10.30;99.90
18597;DHT22;9428;50.950;6.912;2024-03-07T15:06:32;10.30;99.90
18597;DHT22;9428;50.950;6.912;2024-03-07T15:09:19;10.30;99.90
18597;DHT22;9428;50.950;6.912;2024-03-07T15:12:08;10.70;99.90
18597;DHT22;9428;50.950;6.912;2024-03-07T15:14:55;10.20;99.90
18597;DHT22;9428;50.950;6.912;2024-03-07T15:17:44;10.20;99.90
18597;DHT22;9428;50.950;6.912;2024-03-07T15:20:32;10.30;99.90
18597;DHT22;9428;50.950;6.912;2024-03-07T15:23:19;10.80;99.90
18597;DHT22;9428;50.950;6.912;2024-03-07T15:26:08;10.90;99.90
18597;DHT22;9428;50.950;6.912;2024-03-07T15:28:55;10.50;99.90
18597;DHT22;9428;50.950;6.912;2024-03-07T15:31:43;10.30;99.90
18597;DHT22;9428;50.950;6.912;2024-03-07T15:34:31;10.30;99.90
18597;DHT22;9428;50.950;6.912;2024-03-07T15:37:22;10.30;99.90
18597;DHT22;9428;50.950;6.912;2024-03-07T15:40:12;10.80;99.90
18597;DHT22;9428;50.950;6.912;2024-03-07T15:43:00;10.20;99.90
18597;DHT22;9428;50.950;6.912;2024-03-07T15:45:49;10.20;99.90
18597;DHT22;9428;50.950;6.912;2024-03-07T15:48:38;10.10;99.90
18597;DHT22;9428;50.950;6.912;2024-03-07T15:51:27;10.10;99.90
18597;DHT22;9428;50.950;6.912;2024-03-07T15:54:15;10.10;99.90
18597;DHT22;9428;50.950;6.912;2024-03-07T15:57:06;10.00;99.90
18597;DHT22;9428;50.950;6.912;2024-03-07T15:59:53;9.90;99.90
18597;DHT22;9428;50.950;6.912;2024-03-07T16:02:40;10.20;99.90
18597;DHT22;9428;50.950;6.912;2024-03-07T16:05:29;10.00;99.90
18597;DHT22;9428;50.950;6.912;2024-03-07T16:08:18;10.00;99.90
18597;DHT22;9428;50.950;6.912;2024-03-07T16:11:05;9.90;99.90
18597;DHT22;9428;50.950;6.912;2024-03-07T16:13:53;10.00;99.90
18597;DHT22;9428;50.950;6.912;2024-03-07T16:16:40;10.00;99.90
18597;DHT22;9428;50.950;6.912;2024-03-07T16:19:28;9.90;99.90
18597;DHT22;9428;50.950;6.912;2024-03-07T16:22:15;9.80;99.90
18597;DHT22;9428;50.950;6.912;2024-03-07T16:25:04;10.20;99.90
18597;DHT22;9428;50.950;6.912;2024-03-07T16:27:53;9.80;99.90
18597;DHT22;9428;50.950;6.912;2024-03-07T16:30:41;9.70;99.90
18597;DHT22;9428;50.950;6.912;2024-03-07T16:33:30;9.70;99.90
18597;DHT22;9428;50.950;6.912;2024-03-07T16:36:17;9.70;99.90
18597;DHT22;9428;50.950;6.912;2024-03-07T16:39:04;9.80;99.90
18597;DHT22;9428;50.950;6.912;2024-03-07T16:41:59;9.70;99.90
18597;DHT22;9428;50.950;6.912;2024-03-07T16:44:46;9.90;99.90
18597;DHT22;9428;50.950;6.912;2024-03-07T16:47:36;9.70;99.90
18597;DHT22;9428;50.950;6.912;2024-03-07T16:50:25;9.70;99.90
18597;DHT22;9428;50.950;6.912;2024-03-07T16:53:13;9.60;99.90
18597;DHT22;9428;50.950;6.912;2024-03-07T16:56:02;9.70;99.90
18597;DHT22;9428;50.950;6.912;2024-03-07T16:58:51;9.60;99.90
18597;DHT22;9428;50.950;6.912;2024-03-07T17:01:38;9.60;99.90
18597;DHT22;9428;50.950;6.912;2024-03-07T17:04:30;9.60;99.90
18597;DHT22;9428;50.950;6.912;2024-03-07T17:07:17;9.60;99.90
18597;DHT22;9428;50.950;6.912;2024-03-07T17:10:05;9.60;99.90
18597;DHT22;9428;50.950;6.912;2024-03-07T17:12:59;9.60;99.90
18597;DHT22;9428;50.950;6.912;2024-03-07T17:15:48;9.60;99.90
18597;DHT22;9428;50.950;6.912;2024-03-07T17:18:35;9.60;99.90
18597;DHT22;9428;50.950;6.912;2024-03-07T17:21:23;9.60;99.90
18597;DHT22;9428;50.950;6.912;2024-03-07T17:24:11;9.60;99.90
18597;DHT22;9428;50.950;6.912;2024-03-07T17:27:04;9.50;99.90
18597;DHT22;9428;50.950;6.912;2024-03-07T17:29:51;9.40;99.90
18597;DHT22;9428;50.950;6.912;2024-03-07T17:32:40;9.40;99.90
18597;DHT22;9428;50.950;6.912;2024-03-07T17:35:29;9.70;99.90
18597;DHT22;9428;50.950;6.912;2024-03-07T17:38:20;9.30;99.90
18597;DHT22;9428;50.950;6.912;2024-03-07T17:41:07;9.50;99.90
18597;DHT22;9428;50.950;6.912;2024-03-07T17:43:54;9.30;99.90
18597;DHT22;9428;50.950;6.912;2024-03-07T17:46:44;9.50;99.90
18597;DHT22;9428;50.950;6.912;2024-03-07T17:49:33;9.30;99.90
18597;DHT22;9428;50.950;6.912;2024-03-07T17:52:20;9.70;99.90
18597;DHT22;9428;50.950;6.912;2024-03-07T17:55:08;9.30;99.90
18597;DHT22;9428;50.950;6.912;2024-03-07T17:58:01;9.20;99.90
18597;DHT22;9428;50.950;6.912;2024-03-07T18:00:49;9.20;99.90
18597;DHT22;9428;50.950;6.912;2024-03-07T18:03:36;9.20;99.90
18597;DHT22;9428;50.950;6.912;2024-03-07T18:06:25;9.10;99.90
18597;DHT22;9428;50.950;6.912;2024-03-07T18:09:12;9.10;99.90
18597;DHT22;9428;50.950;6.912;2024-03-07T18:12:14;9.00;99.90
18597;DHT22;9428;50.950;6.912;2024-03-07T18:15:01;9.10;99.90
18597;DHT22;9428;50.950;6.912;2024-03-07T18:17:56;9.10;99.90
18597;DHT22;9428;50.950;6.912;2024-03-07T18:20:44;9.10;99.90